Airfield :
LOGIN :

Register | Disclaimer

   EN    FR    IT 

 










Legend :    VFR   Marginal VFR   IFR   Intensive IFR   Very Intensive IFR
Visi :
Ceiling :
>= 8 km
>= 3000ft
5 to 8 km
1000 to 3000 ft
1500m to 5 km
500 to 1000 ft
800 to 1500m
200 to 500 ft
< 800m
< 200 ft
Symbols :   Thunderstorms  Fog  Heavy snow  Heavy precipitations  Wind > 20 kt
SIGMETs :     Misc.  Thunderstorms  Icing  Turbulence  Mountain Waves  Volcanic Ashes







- Airport Elevation : 325 ft
- IATA code : BES
- Download approach charts


LFRB - Brest

CURRENT METAR :
  • 130600Z AUTO 13014KT 7000 RA OVC008/// ///TCU 05/04 Q1004 TEMPO NSW BECMG 13017G27KT

EXPIRED METARs :
  • 130530Z AUTO 13017KT 9999 -RADZ OVC008/// ///TCU 05/04 Q1004 BECMG 13017G27KT
  • 130500Z AUTO 13015KT 9000 -RA OVC008 05/04 Q1004 BECMG 12015G25KT
  • 130430Z AUTO 13017KT 9000 -RA OVC008/// ///TCU 05/03 Q1005 TEMPO OVC006 BECMG 12015G25KT
  • 130400Z AUTO 13017KT 9999 OVC008 05/04 Q1005 BECMG 12015G25KT
  • 130330Z AUTO 13016KT 9999 OVC008 05/04 Q1005 BECMG 12015G25KT

TAF TAF LFRB
Valid from the 13 at 06:00 until the 14 at 12:00 UTC


130500Z 1306/1412 13017G27KT 9000 -RA OVC008 SCT012TCU
TEMPO 1306/1318 6000 -RA OVC006
BECMG 1315/1318 07007KT
BECMG 1400/1403 6000 SCT008 BKN013
ATIS : +33 2 98 32 02 71
No reported NOTAMs for that airfield.



MET'MAP, your aeronautical weather chart ! - Copyright ORBIFLY December 2007 - Disclaimer

ORBIFLY MET'MAP TEAM :

Programming & Development : Alexandra Zaïnal
Concept & Development : Baudouin d'Aumeries
Co-Development & Prog : Marc-Olivier Méhu
Technical & hardware support : Manuel Goepfert

Contact : metmap@orbifly.com




SOURCES & CREDITS :

   NOAA